Time;durP1;ratioP1;P1;durP2;ratioP2;P2;SDS_P1;SDS_P2;PMS_P1;PMS_P2;Temp;Humidity;BMP_temperature;BMP_pressure;BME280_temperature;BME280_humidity;BME280_pressure;Samples;Min_cycle;Max_cycle;Signal;HPM_P1;HPM_P2
2021/06/07 00:01:14;;;;;;;23.08;17.17;;;18.80;90.10;;;;;;5082922;28;27497;-65
2021/06/07 00:03:59;;;;;;;24.70;18.15;;;18.80;90.10;;;;;;5083871;28;27368;-64
2021/06/07 00:06:44;;;;;;;23.42;17.45;;;18.80;90.10;;;;;;5083792;28;27324;-64
2021/06/07 00:09:28;;;;;;;21.83;16.30;;;18.70;90.10;;;;;;5083659;28;27396;-66
2021/06/07 00:12:15;;;;;;;25.02;16.85;;;18.70;90.10;;;;;;5082795;28;27340;-65
2021/06/07 00:15:00;;;;;;;23.08;16.83;;;18.70;90.10;;;;;;5083710;28;27398;-64
2021/06/07 00:17:45;;;;;;;28.67;18.90;;;18.70;90.10;;;;;;5079805;28;27321;-65
2021/06/07 00:20:36;;;;;;;25.30;18.42;;;18.70;90.10;;;;;;5068682;28;27417;-65
2021/06/07 00:23:21;;;;;;;25.40;18.85;;;18.70;90.10;;;;;;5083744;28;27475;-65
2021/06/07 00:26:06;;;;;;;23.23;17.45;;;18.70;90.10;;;;;;5083629;28;27473;-65
2021/06/07 00:28:51;;;;;;;30.60;20.73;;;18.70;90.10;;;;;;5083372;28;27441;-66
2021/06/07 00:31:37;;;;;;;29.60;19.63;;;18.70;90.10;;;;;;5082824;28;27476;-64
2021/06/07 00:34:21;;;;;;;26.15;19.73;;;18.70;90.10;;;;;;5082911;28;27500;-64
2021/06/07 00:37:06;;;;;;;26.80;20.00;;;18.70;90.00;;;;;;5082959;28;27427;-65
2021/06/07 00:39:50;;;;;;;24.90;18.55;;;18.70;90.10;;;;;;5083388;28;27536;-64
2021/06/07 00:42:35;;;;;;;35.10;20.98;;;18.70;90.10;;;;;;5082413;28;27846;-64
2021/06/07 00:45:31;;;;;;;25.65;19.02;;;18.70;90.20;;;;;;5082641;28;27480;-64
2021/06/07 00:48:18;;;;;;;27.52;19.42;;;18.70;90.10;;;;;;5066619;28;27470;-64
2021/06/07 00:51:08;;;;;;;26.58;19.10;;;18.70;90.20;;;;;;5083499;28;27327;-64
2021/06/07 00:53:52;;;;;;;25.55;18.08;;;18.70;90.20;;;;;;5082297;28;27365;-64
2021/06/07 00:56:37;;;;;;;29.58;19.65;;;18.70;90.20;;;;;;5083152;28;27325;-64
2021/06/07 00:59:30;;;;;;;32.17;23.17;;;18.60;90.20;;;;;;5083475;28;27312;-69
2021/06/07 01:02:15;;;;;;;29.40;20.75;;;18.60;90.30;;;;;;5068034;28;27419;-64
2021/06/07 01:05:00;;;;;;;27.10;18.42;;;18.60;90.30;;;;;;5082715;28;27402;-64
2021/06/07 01:07:44;;;;;;;28.15;19.52;;;18.60;90.20;;;;;;5082481;28;27399;-71
2021/06/07 01:10:29;;;;;;;26.88;18.80;;;18.60;90.40;;;;;;5083011;28;27418;-64
2021/06/07 01:13:14;;;;;;;28.05;19.35;;;18.60;90.30;;;;;;5081859;28;27374;-64
2021/06/07 01:15:59;;;;;;;27.45;19.70;;;18.60;90.30;;;;;;5082835;28;27336;-66
2021/06/07 01:18:43;;;;;;;30.65;18.85;;;18.60;90.30;;;;;;5082278;28;27392;-70
2021/06/07 01:21:28;;;;;;;27.35;18.45;;;18.60;90.30;;;;;;5082185;28;27368;-64
2021/06/07 01:24:13;;;;;;;29.30;19.33;;;18.60;90.20;;;;;;5082834;28;27383;-70
2021/06/07 01:26:57;;;;;;;28.13;19.20;;;18.60;90.30;;;;;;5082918;28;27927;-65
2021/06/07 01:29:45;;;;;;;24.17;17.88;;;18.50;90.30;;;;;;5096430;27;27339;-64
2021/06/07 01:32:29;;;;;;;26.05;19.88;;;18.60;90.20;;;;;;5085006;28;27340;-65
2021/06/07 01:35:14;;;;;;;26.75;18.35;;;18.50;90.30;;;;;;5085241;28;27352;-65
2021/06/07 01:37:59;;;;;;;29.80;20.25;;;18.60;90.30;;;;;;5086051;28;27399;-65
2021/06/07 01:40:47;;;;;;;31.05;20.83;;;18.50;90.30;;;;;;5086071;28;27573;-64
2021/06/07 01:43:32;;;;;;;26.90;19.88;;;18.50;90.30;;;;;;5082239;28;27313;-64
2021/06/07 01:46:17;;;;;;;28.55;18.08;;;18.50;90.30;;;;;;5085337;28;27382;-65
2021/06/07 01:49:01;;;;;;;30.75;19.30;;;18.50;90.30;;;;;;5086117;28;27849;-64
2021/06/07 01:51:46;;;;;;;25.48;17.73;;;18.50;90.30;;;;;;5086109;28;27402;-64
2021/06/07 01:54:31;;;;;;;23.33;17.25;;;18.50;90.30;;;;;;5085613;28;27415;-64
2021/06/07 01:57:16;;;;;;;24.15;17.75;;;18.50;90.40;;;;;;5085018;28;27340;-64
2021/06/07 02:00:01;;;;;;;25.08;19.08;;;18.50;90.30;;;;;;5081289;28;27332;-64
2021/06/07 02:02:46;;;;;;;25.77;18.70;;;18.50;90.30;;;;;;5067722;28;27336;-64
2021/06/07 02:05:32;;;;;;;28.05;17.80;;;18.50;90.30;;;;;;5085918;28;27394;-65
2021/06/07 02:08:17;;;;;;;26.27;17.85;;;18.50;90.30;;;;;;5084778;28;27380;-65
2021/06/07 02:11:07;;;;;;;25.30;17.88;;;18.50;90.30;;;;;;5085741;28;27427;-64
2021/06/07 02:13:53;;;;;;;24.10;16.88;;;18.40;90.30;;;;;;5085360;28;27450;-64
2021/06/07 02:16:38;;;;;;;25.08;17.48;;;18.40;90.30;;;;;;5070653;28;27374;-64
2021/06/07 02:19:23;;;;;;;28.52;18.60;;;18.40;90.30;;;;;;5085643;28;27372;-65
2021/06/07 02:22:08;;;;;;;26.85;19.52;;;18.40;90.30;;;;;;5053238;28;27384;-64
2021/06/07 02:24:52;;;;;;;29.92;20.63;;;18.40;90.30;;;;;;5085330;28;27493;-65
2021/06/07 02:27:37;;;;;;;24.10;17.73;;;18.40;90.40;;;;;;5084613;28;27419;-65
2021/06/07 02:30:29;;;;;;;27.65;17.73;;;18.40;90.40;;;;;;5084014;28;27709;-65
2021/06/07 02:33:14;;;;;;;26.88;17.65;;;18.40;90.40;;;;;;5085184;28;27468;-65
2021/06/07 02:35:58;;;;;;;26.60;18.30;;;18.40;90.40;;;;;;5085118;28;27540;-65
2021/06/07 02:38:44;;;;;;;29.67;17.75;;;18.40;90.30;;;;;;5085444;28;27520;-64
2021/06/07 02:41:28;;;;;;;28.42;18.88;;;18.40;90.40;;;;;;5082962;28;27625;-65
2021/06/07 02:44:13;;;;;;;27.95;17.45;;;18.40;90.40;;;;;;5085225;28;27437;-64
2021/06/07 02:46:58;;;;;;;25.92;19.00;;;18.40;90.40;;;;;;5070342;28;27591;-64
2021/06/07 02:49:42;;;;;;;28.90;17.98;;;18.40;90.40;;;;;;5084524;28;27379;-65
2021/06/07 02:52:27;;;;;;;20.55;15.98;;;18.40;90.40;;;;;;5084871;28;27379;-64
2021/06/07 02:55:12;;;;;;;28.05;18.38;;;18.40;90.40;;;;;;5084724;28;27348;-64
2021/06/07 02:57:57;;;;;;;27.75;17.52;;;18.40;90.40;;;;;;5085026;28;27408;-64
2021/06/07 03:00:47;;;;;;;27.23;17.52;;;18.30;90.30;;;;;;5081116;28;27411;-64
2021/06/07 03:03:32;;;;;;;23.75;16.75;;;18.30;90.30;;;;;;5085026;28;27413;-70
2021/06/07 03:06:17;;;;;;;25.27;16.35;;;18.30;90.30;;;;;;5081044;28;27951;-64
2021/06/07 03:09:01;;;;;;;29.65;19.73;;;18.30;90.30;;;;;;5080500;28;27474;-65
2021/06/07 03:11:46;;;;;;;26.65;17.98;;;18.30;90.30;;;;;;5066694;28;27420;-64
2021/06/07 03:14:30;;;;;;;29.30;17.73;;;18.30;90.40;;;;;;5084593;28;27394;-64
2021/06/07 03:17:15;;;;;;;28.13;18.77;;;18.30;90.40;;;;;;5084476;28;27864;-66
2021/06/07 03:20:00;;;;;;;28.67;18.55;;;18.30;90.40;;;;;;5084707;28;27468;-65
2021/06/07 03:22:44;;;;;;;31.13;18.75;;;18.30;90.20;;;;;;5084306;28;27463;-70
2021/06/07 03:25:29;;;;;;;31.15;20.08;;;18.30;90.30;;;;;;5084336;28;27423;-64
2021/06/07 03:28:14;;;;;;;31.10;18.63;;;18.30;90.30;;;;;;5066253;28;27468;-64
2021/06/07 03:30:59;;;;;;;34.55;21.83;;;18.30;90.40;;;;;;5082787;28;27325;-65
2021/06/07 03:33:43;;;;;;;28.23;18.52;;;18.20;90.40;;;;;;5084071;28;27531;-64
2021/06/07 03:36:30;;;;;;;30.33;20.00;;;18.30;90.50;;;;;;5080232;28;27497;-65
2021/06/07 03:39:14;;;;;;;29.55;18.83;;;18.20;90.40;;;;;;5084527;28;27865;-66
2021/06/07 03:41:59;;;;;;;33.95;21.45;;;18.20;90.50;;;;;;5084392;28;27505;-64
2021/06/07 03:44:43;;;;;;;31.92;20.92;;;18.20;90.50;;;;;;5084153;28;27427;-64
2021/06/07 03:47:28;;;;;;;33.95;20.20;;;18.20;90.50;;;;;;5084305;28;27428;-64
2021/06/07 03:50:13;;;;;;;31.65;18.55;;;18.20;90.60;;;;;;5083854;28;27331;-65
2021/06/07 03:52:58;;;;;;;33.72;19.52;;;18.20;90.70;;;;;;5083649;28;27407;-65
2021/06/07 03:55:43;;;;;;;33.20;20.05;;;18.20;90.70;;;;;;5065889;28;26969;-64
2021/06/07 03:58:30;;;;;;;31.70;19.98;;;18.20;90.70;;;;;;5083407;28;27584;-64
2021/06/07 04:01:14;;;;;;;31.08;19.95;;;18.20;90.70;;;;;;5083189;28;27443;-66
2021/06/07 04:03:59;;;;;;;29.50;19.85;;;18.20;90.70;;;;;;5083804;28;27410;-64
2021/06/07 04:06:43;;;;;;;29.70;19.95;;;18.20;90.70;;;;;;5083889;28;27434;-64
2021/06/07 04:09:28;;;;;;;33.85;21.00;;;18.20;90.70;;;;;;5084505;28;27491;-65
2021/06/07 04:12:12;;;;;;;38.45;22.70;;;18.20;90.70;;;;;;5084360;28;27352;-65
2021/06/07 04:14:57;;;;;;;29.98;18.70;;;18.20;90.70;;;;;;5084204;28;27340;-65
2021/06/07 04:17:42;;;;;;;32.38;21.00;;;18.20;90.70;;;;;;5083723;28;27311;-64
2021/06/07 04:20:28;;;;;;;33.17;19.15;;;18.20;90.70;;;;;;5084413;28;27307;-64
2021/06/07 04:23:13;;;;;;;30.50;20.08;;;18.20;90.80;;;;;;5083993;28;27485;-64
2021/06/07 04:25:57;;;;;;;36.85;21.77;;;18.20;90.80;;;;;;5084266;28;27320;-64
2021/06/07 04:28:42;;;;;;;35.08;22.70;;;18.20;90.80;;;;;;5082957;28;27387;-69
2021/06/07 04:31:28;;;;;;;35.10;20.15;;;18.20;90.90;;;;;;5084260;28;27307;-64
2021/06/07 04:34:13;;;;;;;32.17;20.42;;;18.20;90.90;;;;;;5083567;28;27953;-64
2021/06/07 04:36:58;;;;;;;31.58;20.25;;;18.20;91.00;;;;;;5079913;28;27536;-65
2021/06/07 04:39:42;;;;;;;30.35;20.90;;;18.20;90.90;;;;;;5084138;28;27332;-64
2021/06/07 04:42:27;;;;;;;34.38;21.13;;;18.20;90.90;;;;;;5084080;28;27339;-65
2021/06/07 04:45:12;;;;;;;31.92;20.15;;;18.20;90.90;;;;;;5068120;28;27671;-64
2021/06/07 04:47:56;;;;;;;33.00;19.98;;;18.20;90.90;;;;;;5083324;28;27413;-64
2021/06/07 04:50:41;;;;;;;32.80;21.08;;;18.20;90.90;;;;;;5079800;28;27331;-64
2021/06/07 04:53:26;;;;;;;31.38;19.08;;;18.30;91.00;;;;;;5083786;28;27370;-64
2021/06/07 04:56:11;;;;;;;32.88;21.20;;;18.30;91.00;;;;;;5083180;28;27439;-65
2021/06/07 04:58:56;;;;;;;33.03;19.88;;;18.30;90.80;;;;;;5083631;28;27312;-64
2021/06/07 05:01:41;;;;;;;31.40;19.13;;;18.30;90.90;;;;;;5082955;28;27423;-65
2021/06/07 05:04:26;;;;;;;30.30;19.77;;;18.30;90.90;;;;;;5084299;28;27379;-64
2021/06/07 05:07:10;;;;;;;29.85;19.90;;;18.30;90.80;;;;;;5087408;28;27328;-64
2021/06/07 05:09:56;;;;;;;28.15;19.48;;;18.30;90.90;;;;;;5087025;28;27352;-64
2021/06/07 05:12:41;;;;;;;30.42;19.90;;;18.40;90.90;;;;;;5086477;28;27015;-64
2021/06/07 05:15:26;;;;;;;25.88;18.17;;;18.40;91.00;;;;;;5086999;28;27328;-64
2021/06/07 05:18:11;;;;;;;31.13;18.58;;;18.40;90.70;;;;;;5087199;28;28010;-64
2021/06/07 05:20:55;;;;;;;28.70;18.83;;;18.40;90.80;;;;;;5087196;28;27406;-63
2021/06/07 05:23:40;;;;;;;29.42;19.20;;;18.40;90.70;;;;;;5086934;28;27387;-63
2021/06/07 05:26:25;;;;;;;27.52;17.30;;;18.40;90.90;;;;;;5083171;28;27349;-65
2021/06/07 05:29:09;;;;;;;26.33;16.08;;;18.40;91.00;;;;;;5086504;28;27323;-64
2021/06/07 05:31:54;;;;;;;25.45;16.42;;;18.40;91.00;;;;;;5086725;28;27385;-63
2021/06/07 05:34:38;;;;;;;25.55;16.83;;;18.40;90.50;;;;;;5086721;28;27359;-64
2021/06/07 05:37:23;;;;;;;21.90;14.68;;;18.40;90.70;;;;;;5086313;28;27707;-64
2021/06/07 05:40:08;;;;;;;25.67;15.65;;;18.40;90.50;;;;;;5086746;28;27395;-68
2021/06/07 05:42:54;;;;;;;23.10;15.00;;;18.40;90.60;;;;;;5082826;28;27408;-64
2021/06/07 05:45:38;;;;;;;24.63;16.13;;;18.40;90.30;;;;;;5086849;28;27405;-64
2021/06/07 05:48:23;;;;;;;21.80;14.95;;;18.40;90.70;;;;;;5086809;28;26927;-64
2021/06/07 05:51:07;;;;;;;21.65;14.27;;;18.40;90.90;;;;;;5085642;28;27434;-64
2021/06/07 05:53:52;;;;;;;21.70;13.95;;;18.40;90.90;;;;;;5082352;28;27573;-64
2021/06/07 05:56:37;;;;;;;20.15;13.57;;;18.40;91.20;;;;;;5086710;28;27450;-64
2021/06/07 05:59:22;;;;;;;21.02;14.25;;;18.40;91.30;;;;;;5086315;28;27424;-63
2021/06/07 06:02:07;;;;;;;20.42;13.32;;;18.40;91.10;;;;;;5086579;28;27480;-63
2021/06/07 06:04:52;;;;;;;19.95;13.48;;;18.40;91.10;;;;;;5085697;28;27478;-64
2021/06/07 06:07:36;;;;;;;19.55;12.52;;;18.40;91.10;;;;;;5085940;28;27445;-65
2021/06/07 06:10:21;;;;;;;20.00;13.00;;;18.40;91.20;;;;;;5086413;28;27415;-64
2021/06/07 06:13:05;;;;;;;18.55;12.35;;;18.40;91.30;;;;;;5086089;28;27477;-63
2021/06/07 06:15:50;;;;;;;18.40;13.10;;;18.40;91.20;;;;;;5087244;28;27468;-64
2021/06/07 06:18:37;;;;;;;20.35;13.07;;;18.40;91.40;;;;;;5086404;28;27470;-64
2021/06/07 06:21:26;;;;;;;17.30;12.38;;;18.40;91.10;;;;;;5086264;28;27435;-64
2021/06/07 06:24:11;;;;;;;20.90;12.38;;;18.40;91.40;;;;;;5086147;28;27962;-64
2021/06/07 06:26:55;;;;;;;15.95;11.32;;;18.40;91.10;;;;;;5085137;28;27391;-65
2021/06/07 06:29:40;;;;;;;18.23;11.90;;;18.40;91.10;;;;;;5085439;28;27355;-64
2021/06/07 06:32:24;;;;;;;14.90;11.00;;;18.40;91.40;;;;;;5085669;28;27505;-64
2021/06/07 06:35:10;;;;;;;14.15;10.93;;;18.40;91.30;;;;;;5085289;28;27348;-64
2021/06/07 06:37:56;;;;;;;16.13;10.68;;;18.40;91.20;;;;;;5085691;28;27386;-65
2021/06/07 06:40:40;;;;;;;13.50;10.88;;;18.40;91.20;;;;;;5085724;28;27316;-64
2021/06/07 06:43:25;;;;;;;14.52;10.93;;;18.40;91.20;;;;;;5085641;28;27324;-65
2021/06/07 06:46:10;;;;;;;14.93;10.70;;;18.40;91.00;;;;;;5081528;28;27930;-64
2021/06/07 06:48:54;;;;;;;14.88;10.73;;;18.40;90.60;;;;;;5085726;28;27407;-65
2021/06/07 06:51:39;;;;;;;13.80;10.23;;;18.40;91.00;;;;;;5085857;28;27402;-65
2021/06/07 06:54:23;;;;;;;15.93;10.40;;;18.40;90.80;;;;;;5085151;28;27426;-65
2021/06/07 06:57:09;;;;;;;15.07;10.27;;;18.40;90.90;;;;;;5085449;28;27415;-65
2021/06/07 06:59:54;;;;;;;13.90;9.80;;;18.40;90.40;;;;;;5084595;28;27410;-65
2021/06/07 07:02:38;;;;;;;15.10;10.25;;;18.40;90.40;;;;;;5085125;28;27340;-65
2021/06/07 07:05:23;;;;;;;13.10;9.40;;;18.40;90.50;;;;;;5085299;28;27356;-65
2021/06/07 07:08:08;;;;;;;12.27;9.45;;;18.40;90.10;;;;;;5084437;28;27865;-65
2021/06/07 07:10:53;;;;;;;15.45;9.90;;;18.40;91.00;;;;;;5084446;28;27527;-65
2021/06/07 07:13:40;;;;;;;13.82;9.45;;;18.40;91.00;;;;;;5085011;28;27466;-65
2021/06/07 07:16:25;;;;;;;14.43;9.93;;;18.40;91.20;;;;;;5085304;28;27334;-65
2021/06/07 07:19:09;;;;;;;14.68;9.75;;;18.40;90.80;;;;;;5085354;28;27368;-66
2021/06/07 07:21:54;;;;;;;16.75;11.52;;;18.50;91.00;;;;;;5084277;28;27359;-65
2021/06/07 07:24:43;;;;;;;16.23;11.55;;;18.50;90.80;;;;;;5085327;28;27370;-65
2021/06/07 07:27:28;;;;;;;15.35;11.38;;;18.50;90.30;;;;;;5083969;28;27421;-65
2021/06/07 07:30:18;;;;;;;12.48;8.98;;;18.50;90.40;;;;;;5084364;28;27324;-66
2021/06/07 07:33:03;;;;;;;15.52;11.13;;;18.50;90.50;;;;;;5084588;28;27373;-65
2021/06/07 07:35:48;;;;;;;14.38;10.63;;;18.50;90.80;;;;;;5084483;28;27468;-67
2021/06/07 07:38:33;;;;;;;12.57;9.40;;;18.50;90.70;;;;;;5085041;28;27412;-70
2021/06/07 07:41:18;;;;;;;14.30;10.98;;;18.50;91.10;;;;;;5084693;28;27440;-70
2021/06/07 07:44:02;;;;;;;15.35;11.27;;;18.50;90.80;;;;;;5084093;28;27461;-65
2021/06/07 07:46:47;;;;;;;14.85;11.27;;;18.60;90.80;;;;;;5080892;28;27390;-65
2021/06/07 07:49:32;;;;;;;12.60;10.13;;;18.60;90.60;;;;;;5084871;28;27455;-66
2021/06/07 07:52:22;;;;;;;11.57;9.32;;;18.60;90.80;;;;;;5066131;28;27420;-70
2021/06/07 07:55:10;;;;;;;14.55;10.32;;;18.60;91.00;;;;;;5084524;28;27582;-65
2021/06/07 07:57:55;;;;;;;12.60;9.13;;;18.60;90.70;;;;;;5084467;28;27427;-65
2021/06/07 08:00:40;;;;;;;13.60;10.32;;;18.70;90.80;;;;;;5084389;28;27427;-65
2021/06/07 08:03:25;;;;;;;13.98;11.13;;;18.70;90.90;;;;;;5083927;28;27442;-65
2021/06/07 08:06:09;;;;;;;17.60;12.27;;;18.70;91.00;;;;;;5084689;28;27441;-65
2021/06/07 08:08:54;;;;;;;11.55;9.43;;;18.70;91.00;;;;;;5084694;28;27498;-65
2021/06/07 08:11:39;;;;;;;17.88;11.57;;;18.70;90.70;;;;;;5083634;28;27451;-65
2021/06/07 08:14:24;;;;;;;16.83;11.73;;;18.70;90.70;;;;;;5083843;28;27983;-66
2021/06/07 08:17:10;;;;;;;15.27;11.35;;;18.80;90.70;;;;;;5083434;28;27487;-66
2021/06/07 08:19:55;;;;;;;14.60;10.63;;;18.80;90.60;;;;;;5069646;28;27348;-65
2021/06/07 08:22:40;;;;;;;15.90;11.15;;;18.80;90.80;;;;;;5082981;28;27489;-66
2021/06/07 08:25:25;;;;;;;13.27;10.25;;;18.90;91.20;;;;;;5084312;28;27840;-65
2021/06/07 08:28:13;;;;;;;12.65;9.38;;;19.00;91.50;;;;;;5083973;28;27466;-69
2021/06/07 08:30:58;;;;;;;12.35;9.75;;;19.00;91.70;;;;;;5083517;28;27409;-65
2021/06/07 08:33:42;;;;;;;14.02;11.05;;;19.10;91.80;;;;;;5083623;28;27469;-65
2021/06/07 08:36:27;;;;;;;13.05;10.48;;;19.10;91.70;;;;;;5084095;28;27487;-65
2021/06/07 08:39:12;;;;;;;14.82;10.60;;;19.10;91.70;;;;;;5085747;28;27439;-67
2021/06/07 08:41:57;;;;;;;13.32;10.45;;;19.10;91.60;;;;;;5087540;28;27419;-66
2021/06/07 08:44:42;;;;;;;15.77;11.55;;;19.10;91.30;;;;;;5083371;28;27435;-65
2021/06/07 08:47:27;;;;;;;13.30;10.15;;;19.20;91.00;;;;;;5087654;28;27958;-65
2021/06/07 08:50:12;;;;;;;12.10;9.77;;;19.20;91.10;;;;;;5086057;28;27433;-65
2021/06/07 08:52:57;;;;;;;12.98;10.77;;;19.20;91.30;;;;;;5086869;28;27474;-65
2021/06/07 08:55:42;;;;;;;13.77;10.18;;;19.20;91.60;;;;;;5086498;28;27424;-66
2021/06/07 08:58:27;;;;;;;11.10;9.18;;;19.20;91.80;;;;;;5087489;28;27414;-65
2021/06/07 09:01:12;;;;;;;12.27;9.20;;;19.20;91.90;;;;;;5087170;28;27411;-65
2021/06/07 09:04:08;;;;;;;9.85;8.02;;;19.20;91.50;;;;;;5087494;28;27420;-66
2021/06/07 09:06:53;;;;;;;12.13;7.82;;;19.20;91.60;;;;;;5087143;28;27410;-63
2021/06/07 09:09:38;;;;;;;10.95;8.77;;;19.30;91.70;;;;;;5087291;28;27454;-63
2021/06/07 09:12:22;;;;;;;10.05;8.75;;;19.30;91.80;;;;;;5100688;27;27415;-63
2021/06/07 09:15:13;;;;;;;10.95;8.13;;;19.30;91.80;;;;;;5087035;28;27486;-64
2021/06/07 09:17:58;;;;;;;10.95;8.23;;;19.30;91.40;;;;;;5086791;28;27386;-63
2021/06/07 09:20:44;;;;;;;10.45;8.30;;;19.30;91.30;;;;;;5086857;28;27458;-69
2021/06/07 09:23:45;;;;;;;9.50;7.65;;;19.30;91.30;;;;;;5086828;28;27431;-63
2021/06/07 09:26:32;;;;;;;9.65;7.22;;;19.40;91.40;;;;;;5087191;28;27332;-63
2021/06/07 09:29:20;;;;;;;9.18;7.20;;;19.40;91.50;;;;;;5086150;28;27443;-63
2021/06/07 09:32:05;;;;;;;10.88;8.43;;;19.40;91.70;;;;;;5086980;28;27411;-64
2021/06/07 09:35:07;;;;;;;9.82;6.82;;;19.40;91.80;;;;;;5086976;28;27431;-63
2021/06/07 09:38:05;;;;;;;7.55;6.25;;;19.40;91.90;;;;;;5086707;28;27441;-63
2021/06/07 09:41:00;;;;;;;8.07;6.40;;;19.40;91.80;;;;;;5086923;28;27454;-63
2021/06/07 09:43:53;;;;;;;8.73;6.60;;;19.40;91.50;;;;;;5085819;28;27804;-63
2021/06/07 09:46:37;;;;;;;8.63;7.03;;;19.40;91.40;;;;;;5083239;28;27312;-63
2021/06/07 09:49:23;;;;;;;9.07;7.68;;;19.50;91.50;;;;;;5082789;28;27313;-64
2021/06/07 09:52:10;;;;;;;8.18;6.43;;;19.50;91.80;;;;;;5086146;28;27343;-64
2021/06/07 09:55:04;;;;;;;7.00;6.05;;;19.60;91.80;;;;;;5086374;28;27420;-63
2021/06/07 09:57:51;;;;;;;9.27;6.10;;;19.60;91.70;;;;;;5086616;28;27453;-65
2021/06/07 10:00:43;;;;;;;5.93;5.30;;;19.70;91.80;;;;;;5086387;28;26986;-66
2021/06/07 10:03:31;;;;;;;6.65;5.25;;;19.70;92.30;;;;;;5086326;28;27431;-66
2021/06/07 10:06:24;;;;;;;7.63;5.32;;;19.70;92.00;;;;;;5086252;28;27463;-65
2021/06/07 10:09:11;;;;;;;5.60;5.05;;;19.80;91.90;;;;;;5086105;28;27470;-63
2021/06/07 10:11:56;;;;;;;5.88;5.30;;;19.90;92.10;;;;;;5070963;28;27526;-65
2021/06/07 10:14:47;;;;;;;5.10;4.60;;;20.00;92.10;;;;;;5086344;28;27400;-64
2021/06/07 10:17:31;;;;;;;5.55;4.57;;;20.10;92.40;;;;;;5085270;28;27915;-64
2021/06/07 10:23:00;;;;;;;4.70;3.63;;;20.30;93.10;;;;;;5085952;28;27414;-64
2021/06/07 10:25:45;;;;;;;4.03;3.63;;;20.40;93.20;;;;;;5086222;28;27320;-66
2021/06/07 10:28:34;;;;;;;4.05;3.65;;;20.50;93.40;;;;;;5085825;28;27938;-66
2021/06/07 10:31:19;;;;;;;3.90;3.53;;;20.60;93.70;;;;;;5085260;28;27511;-67
2021/06/07 10:34:05;;;;;;;4.90;4.18;;;20.70;93.90;;;;;;5085574;28;27489;-66
2021/06/07 10:36:51;;;;;;;4.25;3.85;;;20.70;94.10;;;;;;5081982;28;27449;-68
2021/06/07 10:39:35;;;;;;;4.35;3.95;;;20.70;93.60;;;;;;5085175;28;27961;-66
2021/06/07 10:42:21;;;;;;;4.00;3.60;;;20.80;93.90;;;;;;5085616;28;27411;-67
2021/06/07 10:45:07;;;;;;;4.90;4.40;;;20.80;94.20;;;;;;5085875;28;27474;-67
2021/06/07 10:47:52;;;;;;;4.80;4.28;;;20.80;94.30;;;;;;5081813;28;27394;-67
2021/06/07 10:50:43;;;;;;;5.57;4.82;;;20.80;93.90;;;;;;5085511;28;27400;-67
2021/06/07 10:53:28;;;;;;;5.00;4.50;;;20.90;94.10;;;;;;5085288;28;27391;-67
2021/06/07 10:56:12;;;;;;;5.30;4.15;;;20.90;93.80;;;;;;5084976;28;27328;-68
2021/06/07 10:58:58;;;;;;;5.00;4.50;;;20.90;93.40;;;;;;5084670;28;27399;-68
2021/06/07 11:01:50;;;;;;;5.85;5.28;;;20.90;93.70;;;;;;5084792;28;27333;-65
2021/06/07 11:04:35;;;;;;;7.20;5.15;;;21.00;93.70;;;;;;5085614;28;27380;-65
2021/06/07 11:07:20;;;;;;;4.30;3.90;;;20.90;93.50;;;;;;5084874;28;27348;-65
2021/06/07 11:10:12;;;;;;;4.43;4.03;;;20.90;93.40;;;;;;5084461;28;27323;-65
2021/06/07 11:13:04;;;;;;;5.88;4.93;;;21.00;93.20;;;;;;5085017;28;27478;-66
2021/06/07 11:15:57;;;;;;;4.65;4.25;;;21.00;93.20;;;;;;5085077;28;27435;-65
2021/06/07 11:18:41;;;;;;;5.03;4.53;;;21.00;92.50;;;;;;5085141;28;27376;-66
2021/06/07 11:21:27;;;;;;;4.50;4.10;;;21.10;92.70;;;;;;5070331;28;27391;-65
2021/06/07 11:24:30;;;;;;;4.43;4.03;;;21.10;92.80;;;;;;5085296;28;27837;-67
2021/06/07 11:27:44;;;;;;;5.22;4.68;;;21.20;93.00;;;;;;5066678;28;27388;-68
2021/06/07 11:30:31;;;;;;;4.55;4.05;;;21.20;93.40;;;;;;5083640;28;27396;-68
2021/06/07 11:33:16;;;;;;;6.30;5.28;;;21.30;93.50;;;;;;5098198;27;27498;-68
2021/06/07 11:36:01;;;;;;;5.30;4.80;;;21.30;93.50;;;;;;5085097;28;27380;-68
2021/06/07 11:38:46;;;;;;;6.15;4.90;;;21.30;93.30;;;;;;5083979;28;27346;-67
2021/06/07 11:41:48;;;;;;;6.22;5.28;;;21.30;93.10;;;;;;5098519;27;27351;-68
2021/06/07 11:44:47;;;;;;;5.82;5.15;;;21.30;93.00;;;;;;5081000;28;27474;-68
2021/06/07 11:47:49;;;;;;;4.57;4.18;;;21.30;92.70;;;;;;5084908;28;27336;-67
2021/06/07 11:50:40;;;;;;;6.75;6.05;;;21.40;93.10;;;;;;5084994;28;27351;-68
2021/06/07 11:53:25;;;;;;;6.47;5.85;;;21.40;93.10;;;;;;5084169;28;27453;-68
2021/06/07 11:56:13;;;;;;;7.28;6.07;;;21.40;92.90;;;;;;5098213;28;27484;-68
2021/06/07 11:58:57;;;;;;;6.63;5.97;;;21.30;92.30;;;;;;5084529;28;27452;-68
2021/06/07 12:01:42;;;;;;;11.60;5.75;;;21.30;91.80;;;;;;5084319;28;27488;-68
2021/06/07 12:04:31;;;;;;;9.43;6.30;;;21.30;92.00;;;;;;5084024;28;27502;-69
2021/06/07 12:07:16;;;;;;;11.23;8.45;;;21.30;92.00;;;;;;5084768;28;27371;-67
2021/06/07 12:10:01;;;;;;;9.70;8.65;;;21.30;87.80;;;;;;5084525;28;27935;-68
2021/06/07 12:12:46;;;;;;;11.45;9.13;;;21.30;87.60;;;;;;5084059;28;27325;-66
2021/06/07 12:15:31;;;;;;;9.32;8.10;;;21.30;88.30;;;;;;5083577;28;27329;-67
2021/06/07 12:18:28;;;;;;;8.98;7.97;;;21.30;88.30;;;;;;5098206;27;27389;-68
2021/06/07 12:21:14;;;;;;;9.25;8.20;;;21.30;89.40;;;;;;5084406;28;27849;-67
2021/06/07 12:24:08;;;;;;;10.07;8.88;;;21.30;90.30;;;;;;5080031;28;27313;-64
2021/06/07 12:29:56;;;;;;;8.77;7.63;;;21.40;91.00;;;;;;5083460;28;27616;-66
2021/06/07 12:32:41;;;;;;;10.00;8.98;;;21.40;91.20;;;;;;5084181;28;27375;-66
2021/06/07 12:35:28;;;;;;;8.73;7.82;;;21.40;91.20;;;;;;5084016;28;27370;-66
2021/06/07 12:38:12;;;;;;;7.57;6.78;;;21.40;90.90;;;;;;5083978;28;27346;-66
2021/06/07 12:40:57;;;;;;;10.80;8.13;;;21.40;90.80;;;;;;5083980;28;27388;-67
2021/06/07 12:43:42;;;;;;;10.65;7.40;;;21.30;86.90;;;;;;5084166;28;27390;-68
2021/06/07 12:46:27;;;;;;;10.25;7.97;;;21.30;88.70;;;;;;5083806;28;27344;-67
2021/06/07 12:49:41;;;;;;;8.25;7.25;;;21.30;89.90;;;;;;5083108;28;27400;-66
2021/06/07 12:52:26;;;;;;;7.97;7.18;;;21.20;89.10;;;;;;5083138;28;27328;-67
2021/06/07 12:55:11;;;;;;;8.35;7.10;;;21.20;89.30;;;;;;5083553;28;27383;-64
2021/06/07 12:57:56;;;;;;;7.65;6.47;;;21.20;89.60;;;;;;5083983;28;27429;-64
2021/06/07 13:00:42;;;;;;;6.45;5.70;;;21.20;89.70;;;;;;5097748;27;27415;-64
2021/06/07 13:03:32;;;;;;;7.63;6.85;;;21.20;89.70;;;;;;5082943;28;27371;-64
2021/06/07 13:06:18;;;;;;;7.75;6.80;;;21.20;90.10;;;;;;5083941;28;27411;-64
2021/06/07 13:09:08;;;;;;;8.48;6.88;;;21.10;90.20;;;;;;5083557;28;27406;-64
2021/06/07 13:11:52;;;;;;;9.07;7.93;;;21.10;89.20;;;;;;5083917;28;27406;-68
2021/06/07 13:14:37;;;;;;;9.20;8.13;;;21.10;89.20;;;;;;5083332;28;27418;-67
2021/06/07 13:17:22;;;;;;;9.60;7.90;;;21.10;89.00;;;;;;5097217;27;27344;-67
2021/06/07 13:20:16;;;;;;;11.23;9.43;;;21.10;88.80;;;;;;5083744;28;27329;-67
2021/06/07 13:23:01;;;;;;;7.00;5.97;;;21.10;88.70;;;;;;5083038;28;27371;-67
2021/06/07 13:25:46;;;;;;;10.05;6.78;;;21.10;88.90;;;;;;5080599;28;27340;-67
2021/06/07 13:28:31;;;;;;;8.10;7.30;;;21.20;89.50;;;;;;5086162;28;27346;-66
2021/06/07 13:31:15;;;;;;;8.48;7.30;;;21.20;89.70;;;;;;5086224;28;27381;-71
2021/06/07 13:34:14;;;;;;;7.75;7.00;;;21.30;90.10;;;;;;5086709;28;27424;-67
2021/06/07 13:37:10;;;;;;;7.35;6.55;;;21.30;90.10;;;;;;5086781;28;27365;-67
2021/06/07 13:39:56;;;;;;;7.95;7.03;;;21.40;90.30;;;;;;5087054;28;27429;-67
2021/06/07 13:42:43;;;;;;;8.82;7.93;;;21.50;90.50;;;;;;5085854;28;27411;-67
2021/06/07 13:45:37;;;;;;;7.43;6.72;;;21.50;90.80;;;;;;5086666;28;27420;-67
2021/06/07 13:48:22;;;;;;;8.18;7.38;;;21.50;91.30;;;;;;5069130;28;27458;-67
2021/06/07 13:51:07;;;;;;;8.80;7.95;;;21.60;91.20;;;;;;5086169;28;27449;-66
2021/06/07 13:53:51;;;;;;;8.00;7.20;;;21.60;91.70;;;;;;5086474;28;27395;-67
2021/06/07 13:56:36;;;;;;;8.73;7.82;;;21.60;91.60;;;;;;5086291;28;27503;-66
2021/06/07 13:59:21;;;;;;;7.70;7.00;;;21.60;91.40;;;;;;5082720;28;27471;-67
2021/06/07 14:02:06;;;;;;;8.82;7.95;;;21.70;91.70;;;;;;5085589;28;27438;-66
2021/06/07 14:04:51;;;;;;;8.80;7.45;;;21.60;91.60;;;;;;5086464;28;27411;-67
2021/06/07 14:07:36;;;;;;;8.75;7.85;;;21.70;91.70;;;;;;5086212;28;27478;-66
2021/06/07 14:10:21;;;;;;;8.80;7.90;;;21.70;91.50;;;;;;5086442;28;27366;-66
2021/06/07 14:13:06;;;;;;;6.50;5.70;;;21.70;91.60;;;;;;5086177;28;27482;-67
2021/06/07 14:15:50;;;;;;;10.05;7.63;;;21.60;91.60;;;;;;5086242;28;27426;-65